Nearby Meteorological Terminal Aviation Routine Weather Reports (METAR)
KAVP - Avoca/Wilkes B., Pennsylvania, USA
Distance from station: NE 13mi, 20km
Updated: Sun, 22-Sep-2019 5:54am EDT
Clear
Clear
 Wind from SE
Wind: SE 5 mph , 7 km/h
Temperature: 57°F , 14°C
Dew Point: 52°F , 11°C
Humidity: 82%
Barometer: 30.18 inHg , 1022 hPa
Clouds: Clear
Visibility: 10 miles , 16 km
2019/09/22 09:54 KAVP 220954Z 13004KT 10SM CLR 14/11 A3018 RMK AO2 SLP213 T01390111
KMPO - Mt. Pocono, Pennsylvania, USA
Distance from station: ESE 28mi, 45km
Updated: Sun, 22-Sep-2019 5:53am EDT
Clear
Clear
 Wind from calm
Wind: Calm
Temperature: 54°F , 12°C
Dew Point: 50°F , 10°C
Humidity: 88%
Barometer: 30.21 inHg , 1023 hPa
Clouds: Clear
Visibility: 10 miles , 16 km
2019/09/22 09:53 KMPO 220953Z AUTO 00000KT 10SM CLR 12/10 A3021 RMK AO2 SLP224 T01170100
 
KABE - Allentown, Pennsylvania, USA
Distance from station: SSE 46mi, 74km
Updated: Sun, 22-Sep-2019 5:51am EDT
Clear
Clear
 Wind from calm
Wind: Calm
Temperature: 55°F , 13°C
Dew Point: 52°F , 11°C
Humidity: 88%
Barometer: 30.17 inHg , 1021.7 hPa
Clouds: Clear
Visibility: 10 miles , 16 km
2019/09/22 09:51 KABE 220951Z 00000KT 10SM CLR 13/11 A3017 RMK AO2 SLP216 T01330111
KXLL - Allentown Queen, Pennsylvania, USA
Distance from station: SSE 50mi, 81km
Updated: Sun, 22-Sep-2019 5:55am EDT
Mostly cloudy
Mostly cloudy
 Wind from calm
Wind: Calm
Temperature: 55°F , 13°C
Dew Point: 55°F , 13°C
Humidity: 100%
Barometer: 30.19 inHg , 1022.4 hPa
Clouds: Mostly cloudy
Visibility: 10 miles , 16 km
Cloud details: Mostly cloudy 5500 ft
2019/09/22 09:55 KXLL 220955Z AUTO 00000KT 10SM BKN055 13/13 A3019 RMK AO2
 
KIPT - Williamsport, Pennsylvania, USA
Distance from station: W 52mi, 84km
Updated: Sun, 22-Sep-2019 5:54am EDT
Clear
Clear
 Wind from calm
Wind: Calm
Temperature: 55°F , 13°C
Dew Point: 54°F , 12°C
Humidity: 94%
Barometer: 30.16 inHg , 1021.3 hPa
Clouds: Clear
Visibility: 10 miles , 16 km
2019/09/22 09:54 KIPT 220954Z AUTO 00000KT 10SM CLR 13/12 A3016 RMK AO2 SLP212 T01330122
KSEG - Selinsgrove, Pennsylvania, USA
Distance from station: WSW 57mi, 92km
Updated: Sun, 22-Sep-2019 5:53am EDT
Mist, Clear
Mist, Clear
 Wind from calm
Wind: Calm
Temperature: 54°F , 12°C
Dew Point: 54°F , 12°C
Humidity: 100%
Barometer: 30.17 inHg , 1021.7 hPa
Summary: Mist
Clouds: Clear
Visibility: 5 miles , 8 km
2019/09/22 09:53 KSEG 220953Z AUTO 00000KT 5SM BR CLR 12/12 A3017 RMK AO2 SLP214 T01220122
 
KRDG - Reading, Pennsylvania, USA
Distance from station: S 59mi, 95km
Updated: Sun, 22-Sep-2019 5:54am EDT
Mist, Mostly cloudy
Mist, Mostly cloudy
 Wind from calm
Wind: Calm
Temperature: 61°F , 16°C
Dew Point: 59°F , 15°C
Humidity: 94%
Barometer: 30.16 inHg , 1021.3 hPa
Summary: Mist
Clouds: Mostly cloudy
Visibility: 6 miles , 10 km
Cloud details: Mostly cloudy 6500 ft
2019/09/22 09:54 KRDG 220954Z 00000KT 6SM BR BKN065 16/15 A3016 RMK AO2 SLP215 T01560150
KUKT - Quakertown Arp, Pennsylvania, USA
Distance from station: SSE 61mi, 98km
Updated: Sun, 22-Sep-2019 5:55am EDT
Clear
Clear
 Wind from calm
Wind: Calm
Temperature: 54°F , 12°C
Dew Point: 54°F , 12°C
Humidity: 100%
Barometer: 30.18 inHg , 1022 hPa
Clouds: Clear
Visibility: 10 miles , 16 km
2019/09/22 09:55 KUKT 220955Z AUTO 00000KT 10SM CLR 12/12 A3018 RMK A01
 
K12N - Andover, New Jersey, USA
Distance from station: ESE 63mi, 101km
Updated: Sun, 22-Sep-2019 5:54am EDT

 Wind from calm
Wind: Calm
Temperature: 52°F , 11°C
Dew Point: 52°F , 11°C
Humidity: 100%
Barometer: 30.18 inHg , 1022 hPa
2019/09/22 09:54 K12N 220954Z AUTO 00000KT 11/11 A3018 RMK AO1 SLP216 T01110106
KMUI - Muir Aaf/Indiant, Pennsylvania, USA
Distance from station: SSW 65mi, 105km
Updated: Sun, 22-Sep-2019 5:56am EDT
Clear
Clear
 Wind from calm
Wind: Calm
Temperature: 57°F , 14°C
Dew Point: 55°F , 13°C
Humidity: 94%
Barometer: 30.16 inHg , 1021.3 hPa
Clouds: Clear
Visibility: 10 miles , 16 km
2019/09/22 09:56 KMUI 220956Z AUTO 00000KT 10SM CLR 14/13 A3016 RMK AO2 SLP214 T01440133
 
KFWN - Sussex, New Jersey, USA
Distance from station: E 66mi, 107km
Updated: Sun, 22-Sep-2019 5:53am EDT
Mist, Few clouds
Mist, Few clouds
 Wind from calm
Wind: Calm
Temperature: 48°F , 9°C
Dew Point: 46°F , 8°C
Humidity: 94%
Barometer: 30.17 inHg , 1021.7 hPa
Summary: Mist
Clouds: Few Clouds
Visibility: 3 miles , 5 km
Cloud details: Few Clouds 300 ft
2019/09/22 09:53 KFWN 220953Z AUTO 00000KT 3SM BR FEW003 09/08 A3017 RMK AO2 SLP216 T00940083
KMSV - Monticello, New York, USA
Distance from station: ENE 67mi, 108km
Updated: Sun, 22-Sep-2019 5:56am EDT
Clear
Clear
 Wind from calm
Wind: Calm
Temperature: 50°F , 10°C
Dew Point: 48°F , 9°C
Humidity: 94%
Barometer: 30.21 inHg , 1023 hPa
Clouds: Clear
Visibility: 10 miles , 16 km
2019/09/22 09:56 KMSV 220956Z AUTO 00000KT 10SM CLR 10/09 A3021 RMK AO2 SLP225 T01000094
 
KBGM - Binghamton, New York, USA
Distance from station: N 69mi, 111km
Updated: Sun, 22-Sep-2019 5:53am EDT
Clear
Clear
 Wind from S
Wind: S 5 mph , 7 km/h
Temperature: 61°F , 16°C
Dew Point: 52°F , 11°C
Humidity: 72%
Barometer: 30.17 inHg , 1021.7 hPa
Clouds: Clear
Visibility: 10 miles , 16 km
2019/09/22 09:53 KBGM 220953Z AUTO 17004KT 10SM CLR 16/11 A3017 RMK AO2 SLP207 T01560111
KPTW - Pottstown, Pennsylvania, USA
Distance from station: SSE 71mi, 114km
Updated: Sun, 22-Sep-2019 5:54am EDT
Mist, Clear
Mist, Clear
 Wind from calm
Wind: Calm
Temperature: 55°F , 13°C
Dew Point: 55°F , 13°C
Humidity: 100%
Barometer: 30.19 inHg , 1022.4 hPa
Summary: Mist
Clouds: Clear
Visibility: 6 miles , 10 km
2019/09/22 09:54 KPTW 220954Z AUTO 00000KT 6SM BR CLR 13/13 A3019 RMK AO2 SLP219 T01280128
 
KDYL - Doylestown, Pennsylvania, USA
Distance from station: SE 74mi, 119km
Updated: Sun, 22-Sep-2019 5:54am EDT
Few Clouds
Few Clouds
 Wind from calm
Wind: Calm
Temperature: 57°F , 14°C
Dew Point: 55°F , 13°C
Humidity: 94%
Barometer: 30.17 inHg , 1021.7 hPa
Clouds: Few Clouds
Visibility: 10 miles , 16 km
Cloud details: Few Clouds 6000 ft
2019/09/22 09:54 KDYL 220954Z AUTO 00000KT 10SM FEW060 14/13 A3017 RMK AO2 SLP210 T01440128
KSMQ - Somerville, New Jersey, USA
Distance from station: ESE 77mi, 124km
Updated: Sun, 22-Sep-2019 5:53am EDT
Clear
Clear
 Wind from calm
Wind: Calm
Temperature: 52°F , 11°C
Dew Point: 50°F , 10°C
Humidity: 94%
Barometer: 30.16 inHg , 1021.3 hPa
Clouds: Clear
Visibility: 9 miles , 14 km
2019/09/22 09:53 KSMQ 220953Z AUTO 00000KT 9SM CLR 11/10 A3016 RMK AO2 SLP211 T01110100
 
KLNS - Lancaster, Pennsylvania, USA
Distance from station: SSW 79mi, 127km
Updated: Sun, 22-Sep-2019 5:53am EDT
Mist, Clear
Mist, Clear
 Wind from ESE
Wind: ESE 3 mph , 6 km/h
Temperature: 59°F , 15°C
Dew Point: 55°F , 13°C
Humidity: 88%
Barometer: 30.16 inHg , 1021.3 hPa
Summary: Mist
Clouds: Clear
Visibility: 4 miles , 6 km
2019/09/22 09:53 KLNS 220953Z 11003KT 4SM BR CLR 15/13 A3016 RMK AO2 SLP212 T01500133
KELM - Elmira, New York, USA
Distance from station: NW 82mi, 132km
Updated: Sun, 22-Sep-2019 5:53am EDT
Clear
Clear
 Wind from calm
Wind: Calm
Temperature: 52°F , 11°C
Dew Point: 52°F , 11°C
Humidity: 100%
Barometer: 30.15 inHg , 1021 hPa
Clouds: Clear
Visibility: 7 miles , 11 km
2019/09/22 09:53 KELM 220953Z 00000KT 7SM CLR 11/11 A3015 RMK AO2 SLP208 T01110111
 
KLOM - Philly Wings F, Pennsylvania, USA
Distance from station: SSE 82mi, 132km
Updated: Sun, 22-Sep-2019 5:55am EDT
Mist, Partly cloudy
Mist, Partly cloudy
 Wind from calm
Wind: Calm
Temperature: 54°F , 12°C
Dew Point: 54°F , 12°C
Humidity: 100%
Barometer: 30.18 inHg , 1022 hPa
Summary: Mist
Clouds: Partly cloudy
Visibility: 3 miles , 5 km
Cloud details: Partly cloudy 6000 ft
2019/09/22 09:55 KLOM 220955Z AUTO 00000KT 3SM BR SCT060 12/12 A3018 RMK AO2 T01220120
KMMU - Morristown Muni, New Jersey, USA
Distance from station: ESE 83mi, 134km
Updated: Sun, 22-Sep-2019 5:55am EDT
Fog, Mostly cloudy
Fog, Mostly cloudy
 Wind from calm
Wind: Calm
Temperature: 46°F , 8°C
Dew Point: 46°F , 8°C
Humidity: 100%
Barometer: 30.17 inHg , 1021.7 hPa
Summary: Fog
Clouds: Mostly cloudy
Visibility: less than 1/4 mile , 0.4 km
Cloud details: Mostly cloudy 300 ft
2019/09/22 09:55 KMMU 220955Z AUTO 00000KT M1/4SM FG BKN003 08/08 A3017 RMK AO2

Metar display script from Saratoga-Weather.org


Cairn Terrier Rescue
teddybearweather.com 2009-2018